AirNav   Air Wisconsin pilot careers
 
 438 users online  

3B8 Shady Acres Airport
Spanaway, Washington, USA

GOING TO SPANAWAY?


FAA INFORMATION EFFECTIVE 18 JULY 2019

Location

FAA Identifier: 3B8
Lat/Long: 47-04-13.4000N / 122-22-15.9000W
47-04.223333N / 122-22.265000W
47.0703889 / -122.3710833
(estimated)
Elevation: 445 ft. / 136 m (estimated)
Variation: 20E (1985)
From city: 3 miles SE of SPANAWAY, WA
Time zone: UTC -7 (UTC -8 during Standard Time)
Zip code: 98387

Airport Operations

Airport use: Open to the public
Activation date: 01/1963
Control tower: no
ARTCC: SEATTLE CENTER
FSS: SEATTLE FLIGHT SERVICE STATION
NOTAMs facility: SEA (NOTAM-D service available)
Attendance: UNATNDD
Wind indicator: yes
Segmented circle: no
LANDING PATTERN INDICATOR PAINTED ON RY.
Lights: SS-SR

Airport Communications

CTAF: 122.9
WX AWOS-3 at PLU (4 nm NE): 128.575 (253-848-2748)
WX ASOS at TIW (15 nm NW): 124.05 (253-858-6507)

Nearby radio navigation aids

VOR radial/distance  VOR name  Freq  Var
TCMr123/6.3MCCHORD VORTAC109.6015E
SEAr168/22.0SEATTLE VORTAC116.8019E
OLMr056/22.5OLYMPIA VORTAC113.4019E

 
NDB name  Hdg/Dist  Freq  Var  ID
LACOMAS048/8.532816ELAC .-.. .- -.-.
MASON COUNTY091/31.134819EMNC -- -. -.-.

Airport Services

Parking: tiedowns
Airframe service: NONE
Powerplant service: NONE
Bottled oxygen: NONE
Bulk oxygen: NONE

Runway Information

Runway 16/34

Dimensions: 1800 x 20 ft. / 549 x 6 m
Surface: asphalt, in good condition
Runway edge lights: low intensity
Runway edge markings: DSPLCD THLD MKD WITH NSTD CHEVRONS.
RUNWAY 16  RUNWAY 34
Traffic pattern: leftright
Displaced threshold: no200 ft.
Markings: NSTD, in fair conditionNSTD, in fair condition
Obstructions: 40 ft. trees, 650 ft. from runway, 50 ft. both sides of centerline, 11:1 slope to clear
90 FT TREES, 111 FT R. FM RWY END.
104 ft. road, 504 ft. from runway, 76 ft. left of centerline, 2:1 slope to clear
ROAD AT 23 FT; RWY 34 APCH SLOPE 13:1 TO DSPLCD THR; 9 FT SIGN, 76' L, AT 21' FM RWY END; 9 FT SIGN, 69 FT R AT 20 FT; 39 FT POLE, 111 FT L AT 18 FT FM RWY END; 6, 4 FT REFLECTIVE POSTS, AT 12 FT CENTERED ON RWY.

Airport Ownership and Management from official FAA records

Ownership: Privately-owned
Owner: SHADY ACRES APT INC
4409 208 ST E
SPANAWAY, WA 98387
Phone 253-846-8953
Manager: JAMES JOHNSON
21125 44TH AVE E
SPANAWAY, WA 98387
Phone (253) 297-8420

Airport Operational Statistics

Aircraft based on the field: 36
Single engine airplanes: 34
Multi engine airplanes: 2
    
Aircraft operations: avg 38/week *
75% local general aviation
25% transient general aviation
* for 12-month period ending 31 December 2016

Additional Remarks

ALL PATTERNS TO THE EAST.
SHADY ACRES PAINTED ON RWY MIDFIELD.
PLINE EAST TREES. PWR POLE N OF FIELD TREES MRKD WITH ORANGE BALLS.
PWR PLANTS WITH EMISSIONS THAT MAY NOT BE VSBL .5 & 1 SM NE OF APT.
ARPT CLSD TO MIL HELICOPTERS. CIVILIAN HELICOPTERS FLY IN FIXED WING TFC PATTERNS DUE TO LIMITED VISIBILITY. TWRS LOCATED: 2100 FT NE, 160 FT AGL RED/WHITE, LGTD AT NGT; 2700 FT E 150 FT AGL, LGTD AT NGT.
FOR CD CTC SEATTLE APCH AT 206-214-4723.

Instrument Procedures

There are no published instrument procedures at 3B8.

Some nearby airports with instrument procedures:

KPLU - Pierce County Airport - Thun Field (4 nm NE)
KTCM - McChord Field Airport (Joint Base Lewis-McChord) (6 nm NW)
KGRF - Gray Army Airfield (Joint Base Lewis-McChord) (9 nm W)
KTIW - Tacoma Narrows Airport (15 nm NW)
S50 - Auburn Municipal Airport (17 nm N)
 
Loc | Ops | Rwys | IFR | FBO | Links
Com | Nav | Svcs | Stats | Notes
Area around 3B8 (Shady Acres Airport)
 
Road maps at: MapQuest Bing Google
 
Aerial photo
WARNING: Photo may not be current or correct
Aerial photo of 3B8 (Shady Acres Airport)
Photo taken 17-Mar-2013
from 1,500 ft looking northwest.

Do you have a better or more recent aerial photo of Shady Acres Airport that you would like to share? If so, please send us your photo.

 
Sectional chart

 
Airport distance calculator
Flying to Shady Acres Airport? Find the distance to fly.

From to 3B8

Sunrise and sunset
Times for 19-Jul-2019
 Local
(UTC-7)
 Zulu
(UTC)
Morning civil twilight04:5711:57
Sunrise05:3512:35
Sunset20:5703:57
Evening civil twilight21:3404:34

Current date and time
Zulu (UTC)  19-Jul-2019 07:26:27
Local (UTC-7)  19-Jul-2019 00:26:27
 
METAR
KPLU 
4nm NE 
190715Z AUTO 00000KT 10SM BKN027 OVC032 15/10 A3008 RMK AO2
KTCM 
5nm NW 
190658Z AUTO 24003KT 10SM SCT033 BKN080 15/12 A3007 RMK AO2 SLP186 T01500123 $
KGRF 
8nm W 
190658Z AUTO 20006KT 10SM FEW075 14/13 A3006 RMK AO2 SLP183 T01440128 $
KTIW 
15nm NW 
190653Z AUTO 03007G15KT 10SM FEW032 BKN080 14/11 A3007 RMK AO2 SLP182 T01390106
TAF
KTCM 
5nm NW 
190500Z 1905/2011 25012KT 9999 SKC QNH3002INS BECMG 1910/1911 29009KT 9999 BKN010 OVC020 QNH3005INS BECMG 1917/1918 33006KT 9999 SCT050 QNH3007INS BECMG 2007/2008 04006KT 9999 FEW050 QNH3010INS TX22/2000Z TN12/1912Z
KGRF 
8nm W 
190500Z 1905/2011 22009KT 9999 BKN070 QNH3002INS BECMG 1911/1912 VRB06KT 9999 BKN015 OVC030 QNH3005INS BECMG 1917/1918 33006KT 9999 FEW030 SCT050 QNH3007INS BECMG 2007/2008 04006KT 9999 FEW050 QNH3010INS TX22/2000Z TN12/1912Z
NOTAMs
Click for the latest NOTAMs
NOTAMs are issued by the DoD/FAA and will open in a separate window not controlled by AirNav.

 

 
 

Would you like to see your business listed on this page?

 If your business provides an interesting product or service to pilots, flight crews, aircraft, or users of the Shady Acres Airport, you should consider listing it here.  To start the listing process, click on the button below
 
Add a business
 

Other Pages about Shady Acres Airport

Update a link
 
Copyright © AirNav, LLC. All rights reserved. Privacy Policy  Contact